Time;durP1;ratioP1;P1;durP2;ratioP2;P2;SDS_P1;SDS_P2;PMS_P1;PMS_P2;Temp;Humidity;BMP_temperature;BMP_pressure;BME280_temperature;BME280_humidity;BME280_pressure;Samples;Min_cycle;Max_cycle;Signal;HPM_P1;HPM_P2
2022/01/22 00:00:42;;;;;;;17.73;2.30;;;5.70;99.90;;;;;;5011627;28;20057;-48
2022/01/22 00:03:08;;;;;;;25.17;2.30;;;5.70;99.90;;;;;;5011490;28;20042;-51
2022/01/22 00:05:35;;;;;;;24.77;2.92;;;5.70;99.90;;;;;;5011751;28;20069;-50
2022/01/22 00:08:01;;;;;;;18.48;2.03;;;5.70;99.90;;;;;;5011838;28;20202;-50
2022/01/22 00:10:27;;;;;;;17.85;2.30;;;5.70;99.90;;;;;;5011917;28;20069;-50
2022/01/22 00:15:21;;;;;;;21.80;2.60;;;5.80;99.90;;;;;;5011315;28;20132;-53
2022/01/22 00:17:48;;;;;;;20.38;2.53;;;5.80;99.90;;;;;;5011209;28;20072;-52
2022/01/22 00:20:16;;;;;;;18.35;2.28;;;5.80;99.90;;;;;;5011626;28;20489;-48
2022/01/22 00:22:43;;;;;;;15.07;2.22;;;5.80;99.90;;;;;;5011480;28;20095;-51
2022/01/22 00:25:10;;;;;;;19.02;2.58;;;5.80;99.90;;;;;;5011194;28;20065;-51
2022/01/22 00:27:38;;;;;;;18.75;2.53;;;5.80;99.90;;;;;;5010828;28;20143;-50
2022/01/22 00:30:06;;;;;;;22.98;2.38;;;5.80;99.90;;;;;;5010373;28;20041;-52
2022/01/22 00:32:32;;;;;;;18.95;2.67;;;5.90;99.90;;;;;;5041452;28;20428;-52
2022/01/22 00:34:57;;;;;;;22.45;2.55;;;5.90;99.90;;;;;;5010977;28;20037;-52
2022/01/22 00:37:23;;;;;;;23.02;2.50;;;5.90;99.90;;;;;;5011130;28;20113;-49
2022/01/22 00:39:49;;;;;;;14.73;2.28;;;5.90;99.90;;;;;;5010826;28;20475;-51
2022/01/22 00:42:16;;;;;;;21.42;2.30;;;6.00;99.90;;;;;;5011142;28;20041;-52
2022/01/22 00:44:43;;;;;;;17.42;2.22;;;6.00;99.90;;;;;;5011104;28;20034;-54
2022/01/22 00:47:09;;;;;;;18.10;2.08;;;6.00;99.90;;;;;;5011186;28;20077;-52
2022/01/22 00:49:38;;;;;;;16.35;2.33;;;6.00;99.90;;;;;;5011373;28;20038;-51
2022/01/22 00:52:04;;;;;;;21.00;2.50;;;6.00;99.90;;;;;;5013519;28;20061;-54
2022/01/22 00:54:31;;;;;;;20.70;2.78;;;6.00;99.90;;;;;;5015192;28;20412;-51
2022/01/22 00:56:57;;;;;;;17.67;2.13;;;6.00;99.90;;;;;;5015140;28;20485;-54
2022/01/22 00:59:24;;;;;;;18.77;2.63;;;6.00;99.90;;;;;;5013944;28;20358;-50
2022/01/22 01:01:49;;;;;;;19.40;2.50;;;6.00;99.90;;;;;;5014514;28;20034;-53
2022/01/22 01:04:15;;;;;;;19.42;1.95;;;6.00;99.90;;;;;;5015075;28;20113;-54
2022/01/22 01:06:41;;;;;;;19.02;2.55;;;6.00;99.90;;;;;;5015282;28;20037;-48
2022/01/22 01:09:08;;;;;;;14.85;1.98;;;6.00;99.90;;;;;;5014758;28;20121;-51
2022/01/22 01:11:39;;;;;;;18.70;2.10;;;6.00;99.90;;;;;;5015080;28;20039;-50
2022/01/22 01:14:08;;;;;;;19.40;2.90;;;6.00;99.90;;;;;;5014922;28;20038;-50
2022/01/22 01:32:55;;;;;;;18.02;2.33;;;6.00;99.90;;;;;;5014518;28;20516;-52
2022/01/22 01:35:21;;;;;;;17.20;2.10;;;6.10;99.90;;;;;;5012584;28;20041;-51
2022/01/22 01:37:49;;;;;;;23.33;2.42;;;6.10;99.90;;;;;;5013959;28;20053;-51
2022/01/22 01:40:19;;;;;;;21.13;2.40;;;6.00;99.90;;;;;;5014242;28;20037;-53
2022/01/22 01:43:04;;;;;;;21.52;2.33;;;6.10;99.90;;;;;;5014183;28;20397;-51
2022/01/22 01:45:30;;;;;;;18.00;2.15;;;6.10;99.90;;;;;;5014089;28;20041;-51
2022/01/22 01:47:59;;;;;;;16.15;2.80;;;6.00;99.90;;;;;;5042578;28;20045;-50
2022/01/22 01:50:25;;;;;;;14.93;2.22;;;6.10;99.90;;;;;;5013150;28;20052;-54
2022/01/22 01:53:11;;;;;;;16.48;2.10;;;6.00;99.90;;;;;;5013735;28;20564;-52
2022/01/22 01:57:27;;;;;;;17.52;2.35;;;6.20;99.90;;;;;;5013518;28;20148;-50
2022/01/22 01:58:23;;;;;;;21.50;2.85;;;6.10;99.90;;;;;;5001986;28;20148;-51
2022/01/22 02:00:49;;;;;;;16.42;2.22;;;6.10;99.90;;;;;;5013252;28;20042;-51
2022/01/22 02:03:15;;;;;;;19.67;2.78;;;6.10;99.90;;;;;;5013766;28;20060;-47
2022/01/22 02:05:41;;;;;;;16.25;2.00;;;6.10;99.90;;;;;;5013462;28;20117;-50
2022/01/22 02:08:08;;;;;;;17.55;2.38;;;6.10;99.90;;;;;;5013642;28;20034;-49
2022/01/22 02:10:39;;;;;;;17.65;2.58;;;6.00;99.90;;;;;;5013634;28;20042;-53
2022/01/22 02:24:03;;;;;;;15.18;2.45;;;6.00;99.90;;;;;;5013076;28;19928;-51
2022/01/22 02:26:29;;;;;;;18.52;2.40;;;6.00;99.90;;;;;;5012763;28;20037;-50
2022/01/22 02:28:56;;;;;;;18.13;2.47;;;5.90;99.90;;;;;;5012999;28;20410;-51
2022/01/22 02:31:40;;;;;;;18.77;2.67;;;5.90;99.90;;;;;;5013171;28;20504;-51
2022/01/22 02:34:23;;;;;;;16.15;2.20;;;5.90;99.90;;;;;;5013351;28;20064;-49
2022/01/22 02:37:00;;;;;;;18.30;2.28;;;5.90;99.90;;;;;;5012964;28;20068;-50
2022/01/22 02:39:38;;;;;;;13.52;2.13;;;5.90;99.90;;;;;;5013151;28;20045;-50
2022/01/22 02:42:04;;;;;;;19.00;2.50;;;5.90;99.90;;;;;;5012953;28;20049;-51
2022/01/22 02:44:44;;;;;;;16.30;2.38;;;5.90;99.90;;;;;;5013317;28;20057;-51
2022/01/22 02:47:10;;;;;;;17.60;2.30;;;5.80;99.90;;;;;;5012677;28;20030;-48
2022/01/22 02:49:36;;;;;;;15.32;2.30;;;5.80;99.90;;;;;;5012550;28;20049;-49
2022/01/22 02:52:08;;;;;;;13.73;2.00;;;5.80;99.90;;;;;;5012720;28;20040;-53
2022/01/22 02:54:35;;;;;;;18.15;2.10;;;5.70;99.90;;;;;;5012498;28;20042;-51
2022/01/22 02:57:01;;;;;;;12.65;2.00;;;5.70;99.90;;;;;;5012660;28;20188;-52
2022/01/22 02:59:26;;;;;;;11.43;2.00;;;5.60;99.90;;;;;;5012935;28;20109;-49
2022/01/22 03:01:54;;;;;;;9.18;1.65;;;5.60;99.90;;;;;;5012749;28;20065;-50
2022/01/22 03:04:20;;;;;;;13.15;2.17;;;5.60;99.90;;;;;;5002400;28;20087;-49
2022/01/22 03:06:48;;;;;;;15.50;1.70;;;5.60;99.90;;;;;;4995422;28;20029;-49
2022/01/22 03:09:16;;;;;;;12.02;2.10;;;5.60;99.90;;;;;;5000533;28;20473;-52
2022/01/22 03:12:11;;;;;;;10.00;1.85;;;5.60;99.90;;;;;;5000655;28;20041;-49
2022/01/22 03:17:46;;;;;;;13.48;2.15;;;5.50;99.90;;;;;;5000179;28;20080;-47
2022/01/22 03:27:48;;;;;;;12.45;2.00;;;5.60;99.90;;;;;;5000417;28;20481;-53
2022/01/22 03:30:14;;;;;;;23.88;2.13;;;5.60;99.90;;;;;;4999539;28;20136;-53
2022/01/22 03:32:44;;;;;;;12.90;2.10;;;5.60;99.90;;;;;;5000021;28;20124;-51
2022/01/22 03:37:51;;;;;;;21.55;2.55;;;5.70;99.90;;;;;;4999664;28;20034;-50
2022/01/22 03:40:22;;;;;;;14.32;2.28;;;5.60;99.90;;;;;;4999899;28;20030;-51
2022/01/22 03:42:49;;;;;;;15.20;2.88;;;5.60;99.90;;;;;;5000215;28;20033;-50
2022/01/22 03:45:17;;;;;;;12.73;2.22;;;5.70;99.90;;;;;;4999709;28;20042;-52
2022/01/22 03:47:44;;;;;;;15.82;2.35;;;5.70;99.90;;;;;;5000194;28;20409;-51
2022/01/22 03:50:12;;;;;;;11.82;2.13;;;5.70;99.90;;;;;;4999479;28;20060;-50
2022/01/22 03:52:38;;;;;;;14.25;2.40;;;5.70;99.90;;;;;;5000199;28;20054;-51
2022/01/22 03:55:07;;;;;;;13.68;2.50;;;5.80;99.90;;;;;;4999276;28;20129;-50
2022/01/22 03:57:33;;;;;;;13.32;2.25;;;5.70;99.90;;;;;;4999402;28;20473;-50
2022/01/22 03:59:59;;;;;;;13.15;2.45;;;5.70;99.90;;;;;;4999726;28;20045;-48
2022/01/22 04:04:57;;;;;;;13.00;2.67;;;5.70;99.90;;;;;;4999974;28;20041;-50
2022/01/22 04:10:09;;;;;;;14.68;2.60;;;5.70;99.90;;;;;;4999423;28;20038;-54
2022/01/22 04:15:11;;;;;;;15.13;2.17;;;5.70;99.90;;;;;;5009433;28;20953;-49
2022/01/22 04:25:49;;;;;;;11.23;1.65;;;5.70;99.90;;;;;;5010810;28;20485;-51
2022/01/22 04:28:14;;;;;;;10.75;2.30;;;5.70;99.90;;;;;;5011348;28;20068;-52
2022/01/22 04:30:40;;;;;;;12.02;1.77;;;5.70;99.90;;;;;;5011519;28;20033;-54
2022/01/22 04:33:06;;;;;;;9.65;1.88;;;5.70;99.90;;;;;;5011407;28;20137;-51
2022/01/22 04:35:32;;;;;;;8.40;1.73;;;5.70;99.90;;;;;;5011263;28;20038;-50
2022/01/22 04:37:58;;;;;;;6.90;1.80;;;5.70;99.90;;;;;;5011422;28;20397;-47
2022/01/22 04:40:23;;;;;;;10.30;1.98;;;5.70;99.90;;;;;;5011119;28;20038;-48
2022/01/22 04:42:49;;;;;;;12.95;1.90;;;5.60;99.90;;;;;;5010835;28;20045;-53
2022/01/22 04:56:28;;;;;;;10.00;1.90;;;5.60;99.90;;;;;;5007379;28;20049;-47
2022/01/22 04:58:54;;;;;;;6.20;1.42;;;5.70;99.90;;;;;;5010872;28;20493;-49
2022/01/22 05:01:20;;;;;;;14.27;1.90;;;5.70;99.90;;;;;;5010647;28;20096;-50
2022/01/22 05:03:45;;;;;;;9.27;1.50;;;5.60;99.90;;;;;;5011301;28;20034;-47
2022/01/22 05:06:11;;;;;;;9.05;1.73;;;5.70;99.90;;;;;;5010666;28;20151;-49
2022/01/22 05:08:37;;;;;;;6.10;2.13;;;5.70;99.90;;;;;;5011139;28;20042;-50
2022/01/22 05:11:02;;;;;;;12.15;1.83;;;5.70;99.90;;;;;;5011077;28;20037;-51
2022/01/22 05:13:28;;;;;;;11.00;1.90;;;5.70;99.90;;;;;;5010819;28;20034;-49
2022/01/22 05:15:54;;;;;;;13.63;1.60;;;5.70;99.90;;;;;;5011053;28;20046;-49
2022/01/22 05:18:19;;;;;;;7.25;1.40;;;5.60;99.90;;;;;;5010374;28;20059;-50
2022/01/22 05:20:53;;;;;;;8.05;1.50;;;5.70;99.90;;;;;;5010696;28;20467;-49
2022/01/22 05:23:22;;;;;;;8.05;1.30;;;5.60;99.90;;;;;;5011385;28;20046;-54
2022/01/22 05:26:01;;;;;;;8.82;1.63;;;5.60;99.90;;;;;;5010159;28;20479;-51
2022/01/22 05:29:02;;;;;;;5.93;1.38;;;5.60;99.90;;;;;;5010920;28;20038;-49
2022/01/22 05:36:59;;;;;;;9.57;1.83;;;5.60;99.90;;;;;;5011072;28;20036;-53
2022/01/22 05:39:28;;;;;;;15.18;2.15;;;5.60;99.90;;;;;;5013021;28;20041;-50
2022/01/22 05:41:55;;;;;;;11.00;1.98;;;5.60;99.90;;;;;;5013713;28;20053;-50
2022/01/22 05:44:21;;;;;;;13.57;2.30;;;5.60;99.90;;;;;;5014108;28;20064;-50
2022/01/22 05:46:48;;;;;;;9.15;2.17;;;5.60;99.90;;;;;;5013644;28;20038;-48
2022/01/22 05:49:14;;;;;;;7.18;1.70;;;5.60;99.90;;;;;;5013732;28;20038;-50
2022/01/22 05:51:42;;;;;;;10.43;2.03;;;5.60;99.90;;;;;;5013793;28;20030;-51
2022/01/22 05:54:31;;;;;;;12.38;1.90;;;5.60;99.90;;;;;;5014028;28;20050;-50
2022/01/22 05:59:39;;;;;;;6.85;1.70;;;5.60;99.90;;;;;;5014085;28;20421;-51
2022/01/22 06:02:13;;;;;;;9.82;2.10;;;5.60;99.90;;;;;;5013709;28;20042;-48
2022/01/22 06:04:40;;;;;;;11.75;2.28;;;5.60;99.90;;;;;;5013900;28;20037;-51
2022/01/22 06:07:07;;;;;;;7.93;1.85;;;5.60;99.90;;;;;;5013666;28;20046;-48
2022/01/22 06:09:36;;;;;;;8.88;2.10;;;5.60;99.90;;;;;;5013510;28;20107;-50
2022/01/22 06:14:35;;;;;;;11.95;2.30;;;5.60;99.90;;;;;;5013700;28;20050;-48
2022/01/22 06:17:01;;;;;;;5.95;2.03;;;5.60;99.90;;;;;;5013305;28;20038;-51
2022/01/22 06:19:27;;;;;;;13.48;2.30;;;5.70;99.90;;;;;;5013733;28;20053;-50
2022/01/22 06:21:53;;;;;;;14.55;2.45;;;5.60;99.90;;;;;;5013170;28;20084;-53
2022/01/22 06:24:20;;;;;;;11.77;2.25;;;5.70;99.90;;;;;;5013465;28;20030;-49
2022/01/22 06:26:45;;;;;;;9.70;2.65;;;5.70;99.90;;;;;;5012883;28;20095;-49
2022/01/22 06:29:12;;;;;;;11.85;3.00;;;5.70;99.90;;;;;;5013067;28;20071;-48
2022/01/22 06:31:38;;;;;;;14.50;2.88;;;5.70;99.90;;;;;;5013265;28;20037;-49
2022/01/22 06:34:04;;;;;;;12.55;3.28;;;5.70;99.90;;;;;;5011792;28;20485;-50
2022/01/22 06:36:31;;;;;;;10.23;3.00;;;5.70;99.90;;;;;;5013169;28;20037;-50
2022/01/22 06:39:10;;;;;;;13.65;3.17;;;5.70;99.90;;;;;;5012874;28;20030;-49
2022/01/22 06:41:45;;;;;;;13.20;3.28;;;5.70;99.90;;;;;;5013320;28;20038;-52
2022/01/22 06:44:15;;;;;;;14.90;3.25;;;5.70;99.90;;;;;;5013170;28;20042;-51
2022/01/22 06:46:42;;;;;;;12.63;2.90;;;5.70;99.90;;;;;;5013098;28;20536;-49
2022/01/22 06:49:08;;;;;;;10.65;3.00;;;5.70;99.90;;;;;;5010739;28;20096;-52
2022/01/22 06:51:34;;;;;;;8.68;2.45;;;5.70;99.90;;;;;;5012864;28;20485;-49
2022/01/22 06:54:01;;;;;;;13.15;2.90;;;5.70;99.90;;;;;;5012864;28;20042;-51
2022/01/22 06:56:29;;;;;;;12.98;2.65;;;5.70;99.90;;;;;;5010692;28;20037;-51
2022/01/22 06:58:56;;;;;;;17.80;3.33;;;5.70;99.90;;;;;;5011613;28;20125;-52
2022/01/22 07:01:22;;;;;;;12.25;2.92;;;5.70;99.90;;;;;;5011922;28;20058;-48
2022/01/22 07:03:47;;;;;;;11.80;2.90;;;5.70;99.90;;;;;;5011425;28;20079;-52
2022/01/22 07:06:13;;;;;;;11.02;2.80;;;5.70;99.90;;;;;;5012808;28;20064;-50
2022/01/22 07:08:38;;;;;;;13.13;2.50;;;5.70;99.90;;;;;;5012771;28;20036;-49
2022/01/22 07:11:06;;;;;;;11.43;2.58;;;5.60;99.90;;;;;;5012440;28;20393;-50
2022/01/22 07:13:31;;;;;;;8.80;2.28;;;5.60;99.90;;;;;;5012584;28;20397;-48
2022/01/22 07:15:57;;;;;;;9.82;2.13;;;5.60;99.90;;;;;;5012603;28;20034;-49
2022/01/22 07:18:23;;;;;;;10.13;2.22;;;5.60;99.90;;;;;;5012039;28;20390;-52
2022/01/22 07:20:51;;;;;;;12.93;2.47;;;5.70;99.90;;;;;;5012030;28;20053;-48
2022/01/22 07:25:48;;;;;;;14.40;2.63;;;5.60;99.90;;;;;;5011528;28;20037;-50
2022/01/22 07:28:15;;;;;;;8.18;2.10;;;5.60;99.90;;;;;;5011827;28;20037;-47
2022/01/22 07:30:40;;;;;;;12.20;2.30;;;5.60;99.90;;;;;;5011900;28;20054;-50
2022/01/22 07:33:07;;;;;;;9.25;2.35;;;5.60;99.90;;;;;;5011905;28;20095;-47
2022/01/22 07:35:35;;;;;;;10.15;2.20;;;5.60;99.90;;;;;;5012312;28;20542;-49
2022/01/22 07:38:01;;;;;;;8.63;2.00;;;5.60;99.90;;;;;;5012332;28;20113;-51
2022/01/22 07:40:28;;;;;;;14.00;2.33;;;5.60;99.90;;;;;;5012051;28;20046;-53
2022/01/22 07:42:55;;;;;;;8.90;2.45;;;5.60;99.90;;;;;;5041664;28;20042;-50
2022/01/22 07:45:21;;;;;;;9.30;2.25;;;5.60;99.90;;;;;;5011765;28;20034;-48
2022/01/22 07:47:46;;;;;;;9.82;2.15;;;5.60;99.90;;;;;;5011906;28;20088;-53
2022/01/22 07:50:12;;;;;;;6.50;2.10;;;5.60;99.90;;;;;;5011510;28;20116;-52
2022/01/22 07:52:38;;;;;;;5.50;1.85;;;5.60;99.90;;;;;;5010239;28;20439;-51
2022/01/22 07:55:06;;;;;;;8.40;1.95;;;5.60;99.90;;;;;;5011304;28;20100;-48
2022/01/22 07:57:32;;;;;;;10.63;2.65;;;5.60;99.90;;;;;;5011695;28;20120;-47
2022/01/22 07:59:58;;;;;;;11.57;2.72;;;5.60;99.90;;;;;;5011373;28;20225;-50
2022/01/22 08:02:23;;;;;;;6.65;2.50;;;5.60;99.90;;;;;;5011221;28;20826;-50
2022/01/22 08:04:49;;;;;;;15.45;3.03;;;5.60;99.90;;;;;;5011259;28;20041;-50
2022/01/22 08:07:15;;;;;;;14.55;3.15;;;5.60;99.90;;;;;;5011329;28;20071;-52
2022/01/22 08:09:41;;;;;;;14.35;3.13;;;5.70;99.90;;;;;;5011272;28;20042;-51
2022/01/22 08:12:07;;;;;;;18.85;3.03;;;5.60;99.90;;;;;;5011677;28;20512;-48
2022/01/22 08:14:33;;;;;;;12.75;2.78;;;5.70;99.90;;;;;;5010814;28;20481;-53
2022/01/22 08:16:59;;;;;;;13.88;3.42;;;5.80;99.90;;;;;;5010996;28;20092;-52
2022/01/22 08:19:24;;;;;;;14.32;3.13;;;5.60;99.90;;;;;;5010855;28;20320;-54
2022/01/22 08:21:50;;;;;;;17.85;3.28;;;5.70;99.90;;;;;;5011381;28;20046;-52
2022/01/22 08:24:18;;;;;;;17.48;3.05;;;5.70;99.90;;;;;;5011412;28;20042;-49
2022/01/22 08:26:49;;;;;;;12.77;3.15;;;5.70;99.90;;;;;;5011074;28;20125;-49
2022/01/22 08:29:14;;;;;;;16.48;3.40;;;5.70;99.90;;;;;;5007866;28;20416;-47
2022/01/22 08:31:49;;;;;;;19.10;3.63;;;5.70;99.90;;;;;;4993061;28;20038;-48
2022/01/22 08:37:00;;;;;;;17.15;2.97;;;5.70;99.90;;;;;;4995629;28;20069;-49
2022/01/22 08:39:26;;;;;;;19.27;3.00;;;5.70;99.90;;;;;;4998131;28;20481;-51
2022/01/22 08:41:52;;;;;;;17.30;2.78;;;5.70;99.90;;;;;;4998493;28;20516;-47
2022/01/22 08:44:17;;;;;;;17.30;2.97;;;5.70;99.90;;;;;;4998066;28;20034;-54
2022/01/22 08:46:43;;;;;;;18.02;3.30;;;5.70;99.90;;;;;;4999091;28;20503;-51
2022/01/22 08:49:09;;;;;;;13.05;2.90;;;5.70;99.90;;;;;;5000238;28;20042;-50
2022/01/22 08:51:39;;;;;;;11.95;3.42;;;5.80;99.90;;;;;;4998980;28;20045;-53
2022/01/22 08:54:08;;;;;;;18.23;3.55;;;5.70;99.90;;;;;;4999805;28;20040;-53
2022/01/22 08:56:34;;;;;;;17.02;3.15;;;5.90;99.90;;;;;;4998283;28;20048;-48
2022/01/22 08:59:00;;;;;;;16.92;3.30;;;5.80;99.90;;;;;;4999875;28;20030;-55
2022/01/22 09:01:26;;;;;;;16.02;3.00;;;5.80;99.90;;;;;;4998215;28;20109;-51
2022/01/22 09:03:51;;;;;;;20.70;3.50;;;5.80;99.90;;;;;;4998891;28;20129;-53
2022/01/22 09:06:18;;;;;;;14.13;2.85;;;5.80;99.90;;;;;;4998874;28;20125;-55
2022/01/22 09:08:45;;;;;;;17.40;2.85;;;5.80;99.90;;;;;;4998675;28;20445;-51
2022/01/22 09:11:12;;;;;;;20.10;3.50;;;5.80;99.90;;;;;;4999232;28;20729;-54
2022/01/22 09:13:37;;;;;;;18.58;3.17;;;5.90;99.90;;;;;;5002112;28;20328;-54
2022/01/22 09:16:04;;;;;;;16.67;3.17;;;5.80;99.90;;;;;;5002302;28;20133;-55
2022/01/22 09:18:30;;;;;;;12.80;3.03;;;5.90;99.90;;;;;;5002601;28;20041;-54
2022/01/22 09:21:02;;;;;;;13.63;2.80;;;5.90;99.90;;;;;;5002542;28;20050;-53
2022/01/22 09:23:29;;;;;;;19.35;3.78;;;5.80;99.90;;;;;;5002938;28;20037;-54
2022/01/22 09:25:56;;;;;;;22.17;7.03;;;5.90;99.90;;;;;;5002258;28;20054;-56
2022/01/22 09:28:22;;;;;;;29.00;7.75;;;5.90;99.90;;;;;;5002517;28;20127;-52
2022/01/22 09:30:48;;;;;;;28.35;10.30;;;5.90;99.90;;;;;;5002375;28;20489;-53
2022/01/22 09:33:14;;;;;;;30.73;11.55;;;5.90;99.90;;;;;;5002827;28;20049;-49
2022/01/22 09:35:40;;;;;;;35.60;11.18;;;5.90;99.90;;;;;;4998129;28;20048;-50
2022/01/22 09:38:06;;;;;;;42.25;14.88;;;5.90;99.90;;;;;;4999934;28;20045;-50
2022/01/22 09:40:32;;;;;;;51.40;20.23;;;5.90;99.90;;;;;;5001701;28;20038;-54
2022/01/22 09:42:59;;;;;;;59.72;23.10;;;5.90;99.90;;;;;;4984276;28;20038;-49
2022/01/22 09:45:27;;;;;;;60.38;23.15;;;5.90;99.90;;;;;;5001026;28;20112;-49
2022/01/22 09:47:53;;;;;;;64.25;22.98;;;5.90;99.90;;;;;;5002113;28;20049;-50
2022/01/22 09:50:23;;;;;;;50.05;18.13;;;5.90;99.90;;;;;;5001880;28;20100;-52
2022/01/22 09:52:50;;;;;;;35.15;10.00;;;5.90;99.90;;;;;;5001079;28;20045;-54
2022/01/22 09:55:16;;;;;;;21.30;6.18;;;5.90;99.90;;;;;;5000110;28;20060;-50
2022/01/22 09:57:44;;;;;;;19.83;4.28;;;5.90;99.90;;;;;;4999859;28;20046;-52
2022/01/22 10:00:13;;;;;;;17.05;4.38;;;5.90;99.90;;;;;;5001086;28;20049;-52
2022/01/22 10:02:47;;;;;;;16.27;4.63;;;5.90;99.90;;;;;;5001043;28;20163;-54
2022/01/22 10:05:36;;;;;;;22.48;5.05;;;5.90;99.90;;;;;;5002626;28;20060;-48
2022/01/22 10:08:32;;;;;;;18.50;5.20;;;6.00;99.90;;;;;;5001888;28;20123;-49
2022/01/22 10:11:01;;;;;;;18.67;4.55;;;5.90;99.90;;;;;;5000963;28;20038;-52
2022/01/22 10:13:37;;;;;;;21.48;4.70;;;6.00;99.90;;;;;;5000251;28;20038;-52
2022/01/22 10:16:21;;;;;;;23.30;5.30;;;6.00;99.90;;;;;;5033054;28;20052;-50
2022/01/22 10:19:07;;;;;;;20.52;6.38;;;6.00;99.90;;;;;;5002011;28;20061;-52
2022/01/22 10:21:34;;;;;;;23.52;7.57;;;6.00;99.90;;;;;;5000845;28;20052;-52
2022/01/22 10:24:37;;;;;;;23.65;6.35;;;6.00;99.90;;;;;;5002481;28;20041;-50
2022/01/22 10:30:05;;;;;;;17.15;4.72;;;6.10;99.90;;;;;;5001763;28;20519;-54
2022/01/22 10:32:45;;;;;;;26.70;5.47;;;6.10;99.90;;;;;;5001601;28;20121;-55
2022/01/22 10:35:24;;;;;;;21.65;5.47;;;6.10;99.90;;;;;;5007630;28;20060;-52
2022/01/22 10:37:58;;;;;;;22.73;6.30;;;6.10;99.90;;;;;;5012517;28;20033;-55
2022/01/22 10:40:32;;;;;;;22.08;7.20;;;6.20;99.90;;;;;;5026152;28;20048;-49
2022/01/22 10:43:16;;;;;;;25.00;7.32;;;6.20;99.90;;;;;;5008906;28;20301;-50
2022/01/22 10:45:56;;;;;;;25.45;6.47;;;6.20;99.90;;;;;;5010632;28;20041;-49
2022/01/22 10:48:22;;;;;;;24.83;5.28;;;6.20;99.90;;;;;;5011598;28;20050;-50
2022/01/22 10:51:13;;;;;;;20.00;4.10;;;6.20;99.90;;;;;;5012486;28;20041;-52
2022/01/22 10:53:52;;;;;;;14.98;3.70;;;6.30;99.90;;;;;;5010902;28;20042;-53
2022/01/22 10:56:20;;;;;;;21.45;4.00;;;6.30;99.90;;;;;;5011482;28;20048;-51
2022/01/22 10:58:55;;;;;;;15.52;4.38;;;6.30;99.90;;;;;;5011564;28;20058;-53
2022/01/22 11:01:22;;;;;;;16.35;4.47;;;6.40;99.90;;;;;;5009839;28;20481;-51
2022/01/22 11:04:01;;;;;;;16.38;3.42;;;6.40;99.90;;;;;;5009722;28;20034;-50
2022/01/22 11:06:27;;;;;;;12.95;3.17;;;6.40;99.90;;;;;;5012417;28;20068;-51
2022/01/22 11:08:54;;;;;;;17.38;3.30;;;6.50;99.90;;;;;;5012305;28;20034;-51
2022/01/22 11:11:21;;;;;;;13.27;3.25;;;6.50;99.90;;;;;;5011869;28;20042;-52
2022/01/22 11:13:46;;;;;;;13.55;3.22;;;6.50;99.90;;;;;;5012228;28;20088;-49
2022/01/22 11:16:14;;;;;;;21.58;3.90;;;6.50;99.90;;;;;;5012312;28;20482;-53
2022/01/22 11:18:43;;;;;;;17.48;3.65;;;6.50;99.90;;;;;;5004833;28;20524;-56
2022/01/22 11:21:10;;;;;;;17.52;5.10;;;6.50;99.90;;;;;;5007428;28;20095;-50
2022/01/22 11:23:35;;;;;;;14.55;3.90;;;6.50;99.90;;;;;;5008353;28;20121;-49
2022/01/22 11:26:02;;;;;;;16.27;3.63;;;6.50;99.90;;;;;;5009464;28;20160;-49
2022/01/22 11:28:28;;;;;;;13.10;3.72;;;6.50;99.90;;;;;;5010499;28;20034;-51
2022/01/22 11:30:58;;;;;;;15.35;3.63;;;7.30;99.90;;;;;;5011762;28;20045;-51
2022/01/22 11:33:25;;;;;;;20.77;3.97;;;7.00;99.90;;;;;;5010804;28;20068;-53
2022/01/22 11:36:31;;;;;;;14.73;3.80;;;6.50;99.90;;;;;;5011237;28;20042;-53
2022/01/22 11:38:58;;;;;;;15.68;4.20;;;6.60;99.90;;;;;;5009268;28;20038;-51
2022/01/22 11:41:25;;;;;;;12.90;4.38;;;6.50;99.90;;;;;;5009977;28;20088;-52
2022/01/22 11:46:34;;;;;;;15.57;4.28;;;6.60;99.90;;;;;;5010091;28;20370;-51
2022/01/22 11:49:26;;;;;;;18.92;6.38;;;6.50;99.90;;;;;;5011737;28;20042;-50
2022/01/22 11:51:54;;;;;;;19.10;5.95;;;6.60;99.90;;;;;;5008563;28;20504;-52
2022/01/22 11:54:23;;;;;;;23.92;6.72;;;6.60;99.90;;;;;;4998487;28;20489;-51
2022/01/22 11:56:50;;;;;;;24.52;7.60;;;6.50;99.90;;;;;;5003043;28;20034;-53
2022/01/22 11:59:30;;;;;;;18.30;7.20;;;6.60;99.90;;;;;;5003820;28;20049;-51
2022/01/22 12:02:03;;;;;;;18.50;6.68;;;6.60;99.90;;;;;;5003910;28;20034;-49
2022/01/22 12:04:38;;;;;;;19.08;6.85;;;6.60;99.90;;;;;;5003525;28;20041;-51
2022/01/22 12:07:03;;;;;;;18.70;5.65;;;6.60;99.90;;;;;;5003275;28;20042;-48
2022/01/22 12:15:16;;;;;;;11.57;3.00;;;6.60;99.90;;;;;;5001640;28;20038;-51
2022/01/22 12:18:01;;;;;;;10.57;3.20;;;6.60;99.90;;;;;;5003128;28;21193;-53
2022/01/22 12:20:42;;;;;;;12.07;3.70;;;6.60;99.90;;;;;;5003192;28;20057;-52
2022/01/22 12:23:12;;;;;;;15.82;3.88;;;6.60;99.90;;;;;;5001821;28;20044;-50
2022/01/22 12:25:38;;;;;;;10.50;3.55;;;6.60;99.90;;;;;;5002726;28;20045;-54
2022/01/22 12:28:07;;;;;;;11.52;3.40;;;6.60;99.90;;;;;;5003017;28;20084;-49
2022/01/22 12:30:39;;;;;;;10.27;3.30;;;6.60;99.90;;;;;;5002475;28;20038;-55
2022/01/22 12:33:09;;;;;;;15.75;3.63;;;6.80;99.90;;;;;;5003211;28;20393;-52
2022/01/22 12:35:45;;;;;;;10.15;2.88;;;6.70;99.90;;;;;;5002631;28;20050;-52
2022/01/22 12:38:37;;;;;;;12.40;3.42;;;6.70;99.90;;;;;;5002874;28;20393;-50
2022/01/22 12:47:01;;;;;;;;;;;6.80;99.90;;;;;;5002429;28;20068;-51
2022/01/22 12:49:28;;;;;;;8.68;2.53;;;6.80;99.90;;;;;;5006658;28;19917;-50
2022/01/22 12:51:55;;;;;;;12.27;2.25;;;6.80;99.90;;;;;;5007184;28;20038;-54
2022/01/22 12:54:31;;;;;;;10.02;2.45;;;6.80;99.90;;;;;;5007027;28;20029;-53
2022/01/22 12:57:14;;;;;;;9.90;2.15;;;6.80;99.90;;;;;;5006266;28;20473;-54
2022/01/22 13:00:07;;;;;;;15.50;3.00;;;6.80;99.90;;;;;;5006225;28;20504;-55
2022/01/22 13:02:39;;;;;;;10.35;2.67;;;6.90;99.90;;;;;;5006348;28;20103;-51
2022/01/22 13:05:06;;;;;;;7.47;2.20;;;6.90;99.90;;;;;;5006167;28;20053;-53
2022/01/22 13:07:45;;;;;;;12.65;2.83;;;6.90;99.90;;;;;;5006700;28;20030;-55
2022/01/22 13:10:12;;;;;;;13.10;2.78;;;6.90;99.90;;;;;;5002276;28;20125;-48
2022/01/22 13:12:43;;;;;;;11.55;3.20;;;6.90;99.90;;;;;;5006526;28;20071;-52
2022/01/22 13:15:12;;;;;;;9.63;2.50;;;6.90;99.90;;;;;;5000778;28;20052;-49
2022/01/22 13:17:39;;;;;;;19.67;7.63;;;6.90;99.90;;;;;;5005409;28;20049;-55
2022/01/22 13:20:07;;;;;;;51.15;17.50;;;6.90;99.90;;;;;;5006907;28;20057;-53
2022/01/22 13:22:37;;;;;;;45.72;17.25;;;6.90;99.90;;;;;;5007913;28;20396;-53
2022/01/22 13:25:07;;;;;;;25.38;8.85;;;6.90;99.90;;;;;;5007639;28;20030;-50
2022/01/22 13:27:35;;;;;;;14.18;4.10;;;6.90;99.90;;;;;;5007012;28;20065;-51
2022/01/22 13:30:01;;;;;;;15.65;4.78;;;6.90;99.90;;;;;;5007202;28;20092;-54
2022/01/22 13:32:47;;;;;;;22.95;8.48;;;6.80;99.90;;;;;;5007457;28;20388;-48
2022/01/22 13:40:47;;;;;;;26.00;9.30;;;6.80;99.90;;;;;;5007504;28;20073;-53
2022/01/22 13:49:19;;;;;;;12.23;2.20;;;6.70;99.90;;;;;;5011814;28;20445;-55
2022/01/22 13:51:46;;;;;;;12.25;2.60;;;6.70;99.90;;;;;;5011807;28;20481;-54
2022/01/22 13:54:13;;;;;;;17.55;4.50;;;6.70;99.90;;;;;;5011917;28;20052;-49
2022/01/22 13:56:51;;;;;;;18.15;5.57;;;6.70;99.90;;;;;;5009949;28;20049;-53
2022/01/22 13:59:19;;;;;;;14.90;5.32;;;6.70;99.90;;;;;;5011156;28;20497;-53
2022/01/22 14:02:07;;;;;;;16.73;4.80;;;6.70;99.90;;;;;;5008381;28;20619;-52
2022/01/22 14:04:47;;;;;;;13.50;4.03;;;6.70;99.90;;;;;;5013153;28;20089;-52
2022/01/22 14:07:24;;;;;;;14.77;4.50;;;6.70;99.90;;;;;;5009783;28;20048;-54
2022/01/22 14:09:53;;;;;;;16.52;4.03;;;6.70;99.90;;;;;;5007832;28;20264;-52
2022/01/22 14:12:19;;;;;;;16.60;5.00;;;6.70;99.90;;;;;;5012536;28;20041;-51
2022/01/22 14:15:23;;;;;;;14.80;4.28;;;6.70;99.90;;;;;;5012875;28;20042;-54
2022/01/22 14:18:19;;;;;;;17.60;5.22;;;6.70;99.90;;;;;;4975349;28;20054;-49
2022/01/22 14:20:46;;;;;;;12.57;4.70;;;6.70;99.90;;;;;;5012775;28;20049;-51
2022/01/22 14:23:31;;;;;;;18.00;4.95;;;6.70;99.90;;;;;;5011355;28;20501;-53
2022/01/22 14:25:57;;;;;;;19.15;5.30;;;6.70;99.90;;;;;;5011951;28;20033;-51
2022/01/22 14:28:39;;;;;;;22.67;5.57;;;6.70;99.90;;;;;;5012130;28;20088;-52
2022/01/22 14:31:44;;;;;;;17.55;5.00;;;6.70;99.90;;;;;;5011896;28;20053;-51
2022/01/22 14:34:12;;;;;;;15.73;3.22;;;6.70;99.90;;;;;;4999899;28;20115;-52
2022/01/22 14:36:39;;;;;;;12.73;2.60;;;6.70;99.90;;;;;;5012363;28;20042;-53
2022/01/22 14:39:26;;;;;;;14.40;3.88;;;6.70;99.90;;;;;;5009868;28;20034;-52
2022/01/22 14:45:07;;;;;;;33.35;11.98;;;6.70;99.90;;;;;;4968855;28;20059;-53
2022/01/22 14:47:33;;;;;;;35.38;13.55;;;6.70;99.90;;;;;;5011766;28;20046;-56
2022/01/22 14:50:09;;;;;;;35.25;15.02;;;6.80;99.90;;;;;;5012839;28;20037;-50
2022/01/22 14:52:35;;;;;;;16.90;6.97;;;6.70;99.90;;;;;;5012814;28;20489;-50
2022/01/22 14:55:04;;;;;;;11.52;3.33;;;6.70;99.90;;;;;;5012982;28;20496;-50
2022/01/22 14:57:34;;;;;;;8.52;1.75;;;6.70;99.90;;;;;;5012337;28;20451;-54
2022/01/22 15:00:06;;;;;;;10.70;2.00;;;6.70;99.90;;;;;;5012927;28;20038;-55